sensor_id;sensor_type;location;lat;lon;timestamp;P1;durP1;ratioP1;P2;durP2;ratioP2
23684;SDS011;12020;51.384;6.908;2023-03-23T00:01:48;3.03;;;2.20;;
23684;SDS011;12020;51.384;6.908;2023-03-23T00:04:17;3.88;;;2.47;;
23684;SDS011;12020;51.384;6.908;2023-03-23T00:06:43;3.55;;;2.60;;
23684;SDS011;12020;51.384;6.908;2023-03-23T00:09:10;5.38;;;2.50;;
23684;SDS011;12020;51.384;6.908;2023-03-23T00:11:37;2.47;;;2.25;;
23684;SDS011;12020;51.384;6.908;2023-03-23T00:14:04;2.97;;;2.20;;
23684;SDS011;12020;51.384;6.908;2023-03-23T00:16:31;3.05;;;2.17;;
23684;SDS011;12020;51.384;6.908;2023-03-23T00:18:59;3.90;;;2.30;;
23684;SDS011;12020;51.384;6.908;2023-03-23T00:21:34;2.25;;;2.05;;
23684;SDS011;12020;51.384;6.908;2023-03-23T00:24:06;3.10;;;2.15;;
23684;SDS011;12020;51.384;6.908;2023-03-23T00:26:32;3.33;;;2.17;;
23684;SDS011;12020;51.384;6.908;2023-03-23T00:29:03;2.70;;;2.10;;
23684;SDS011;12020;51.384;6.908;2023-03-23T00:31:30;3.90;;;2.30;;
23684;SDS011;12020;51.384;6.908;2023-03-23T00:34:01;3.25;;;2.30;;
23684;SDS011;12020;51.384;6.908;2023-03-23T00:36:32;3.92;;;2.38;;
23684;SDS011;12020;51.384;6.908;2023-03-23T00:39:00;2.72;;;2.00;;
23684;SDS011;12020;51.384;6.908;2023-03-23T00:41:27;2.70;;;2.30;;
23684;SDS011;12020;51.384;6.908;2023-03-23T00:43:55;2.67;;;2.13;;
23684;SDS011;12020;51.384;6.908;2023-03-23T00:46:23;2.95;;;2.30;;
23684;SDS011;12020;51.384;6.908;2023-03-23T00:48:49;3.47;;;2.40;;
23684;SDS011;12020;51.384;6.908;2023-03-23T00:51:16;4.40;;;2.47;;
23684;SDS011;12020;51.384;6.908;2023-03-23T00:53:45;3.05;;;2.38;;
23684;SDS011;12020;51.384;6.908;2023-03-23T00:56:11;3.47;;;2.45;;
23684;SDS011;12020;51.384;6.908;2023-03-23T00:58:37;3.10;;;2.40;;
23684;SDS011;12020;51.384;6.908;2023-03-23T01:01:03;3.70;;;2.23;;
23684;SDS011;12020;51.384;6.908;2023-03-23T01:03:29;3.92;;;2.20;;
23684;SDS011;12020;51.384;6.908;2023-03-23T01:05:55;3.40;;;2.28;;
23684;SDS011;12020;51.384;6.908;2023-03-23T01:08:21;3.00;;;2.20;;
23684;SDS011;12020;51.384;6.908;2023-03-23T01:10:48;4.53;;;2.50;;
23684;SDS011;12020;51.384;6.908;2023-03-23T01:13:15;3.53;;;2.30;;
23684;SDS011;12020;51.384;6.908;2023-03-23T01:15:41;2.92;;;2.08;;
23684;SDS011;12020;51.384;6.908;2023-03-23T01:18:07;3.10;;;2.20;;
23684;SDS011;12020;51.384;6.908;2023-03-23T01:20:34;2.90;;;2.15;;
23684;SDS011;12020;51.384;6.908;2023-03-23T01:23:03;3.63;;;2.25;;
23684;SDS011;12020;51.384;6.908;2023-03-23T01:25:30;2.95;;;2.40;;
23684;SDS011;12020;51.384;6.908;2023-03-23T01:27:59;3.67;;;2.20;;
23684;SDS011;12020;51.384;6.908;2023-03-23T01:30:25;3.00;;;2.10;;
23684;SDS011;12020;51.384;6.908;2023-03-23T01:32:51;3.42;;;2.00;;
23684;SDS011;12020;51.384;6.908;2023-03-23T01:35:17;2.40;;;2.03;;
23684;SDS011;12020;51.384;6.908;2023-03-23T01:37:43;2.73;;;2.23;;
23684;SDS011;12020;51.384;6.908;2023-03-23T01:40:09;2.53;;;2.03;;
23684;SDS011;12020;51.384;6.908;2023-03-23T01:42:36;2.58;;;2.10;;
23684;SDS011;12020;51.384;6.908;2023-03-23T01:47:49;3.43;;;2.20;;
23684;SDS011;12020;51.384;6.908;2023-03-23T01:50:30;3.00;;;2.05;;
23684;SDS011;12020;51.384;6.908;2023-03-23T01:53:17;4.15;;;2.42;;
23684;SDS011;12020;51.384;6.908;2023-03-23T01:55:45;2.80;;;2.40;;
23684;SDS011;12020;51.384;6.908;2023-03-23T01:58:15;2.72;;;2.00;;
23684;SDS011;12020;51.384;6.908;2023-03-23T02:00:45;3.22;;;2.30;;
23684;SDS011;12020;51.384;6.908;2023-03-23T02:03:11;2.92;;;2.17;;
23684;SDS011;12020;51.384;6.908;2023-03-23T02:05:41;2.90;;;2.40;;
23684;SDS011;12020;51.384;6.908;2023-03-23T02:08:07;2.90;;;2.20;;
23684;SDS011;12020;51.384;6.908;2023-03-23T02:10:35;3.55;;;2.47;;
23684;SDS011;12020;51.384;6.908;2023-03-23T02:13:03;2.85;;;2.50;;
23684;SDS011;12020;51.384;6.908;2023-03-23T02:15:34;3.75;;;2.50;;
23684;SDS011;12020;51.384;6.908;2023-03-23T02:23:20;3.23;;;2.47;;
23684;SDS011;12020;51.384;6.908;2023-03-23T02:25:55;3.05;;;2.53;;
23684;SDS011;12020;51.384;6.908;2023-03-23T02:31:53;3.00;;;2.53;;
23684;SDS011;12020;51.384;6.908;2023-03-23T02:34:30;4.27;;;2.43;;
23684;SDS011;12020;51.384;6.908;2023-03-23T02:37:24;3.63;;;2.70;;
23684;SDS011;12020;51.384;6.908;2023-03-23T02:39:56;2.63;;;2.35;;
23684;SDS011;12020;51.384;6.908;2023-03-23T02:42:33;3.58;;;2.35;;
23684;SDS011;12020;51.384;6.908;2023-03-23T02:45:03;2.83;;;2.10;;
23684;SDS011;12020;51.384;6.908;2023-03-23T02:47:32;4.15;;;2.60;;
23684;SDS011;12020;51.384;6.908;2023-03-23T02:50:01;3.10;;;2.40;;
23684;SDS011;12020;51.384;6.908;2023-03-23T02:52:29;3.67;;;2.47;;
23684;SDS011;12020;51.384;6.908;2023-03-23T02:54:58;2.63;;;2.30;;
23684;SDS011;12020;51.384;6.908;2023-03-23T02:57:25;2.80;;;2.50;;
23684;SDS011;12020;51.384;6.908;2023-03-23T02:59:52;2.88;;;2.50;;
23684;SDS011;12020;51.384;6.908;2023-03-23T03:02:39;3.37;;;2.50;;
23684;SDS011;12020;51.384;6.908;2023-03-23T03:05:26;3.05;;;2.70;;
23684;SDS011;12020;51.384;6.908;2023-03-23T03:07:58;3.72;;;2.47;;
23684;SDS011;12020;51.384;6.908;2023-03-23T03:10:53;3.35;;;2.55;;
23684;SDS011;12020;51.384;6.908;2023-03-23T03:13:26;2.58;;;2.25;;
23684;SDS011;12020;51.384;6.908;2023-03-23T03:15:59;2.90;;;2.63;;
23684;SDS011;12020;51.384;6.908;2023-03-23T03:18:37;3.03;;;2.47;;
23684;SDS011;12020;51.384;6.908;2023-03-23T03:21:06;3.33;;;2.45;;
23684;SDS011;12020;51.384;6.908;2023-03-23T03:23:36;3.25;;;2.38;;
23684;SDS011;12020;51.384;6.908;2023-03-23T03:26:06;3.35;;;2.33;;
23684;SDS011;12020;51.384;6.908;2023-03-23T03:28:35;2.65;;;2.17;;
23684;SDS011;12020;51.384;6.908;2023-03-23T03:31:01;2.80;;;2.17;;
23684;SDS011;12020;51.384;6.908;2023-03-23T03:33:29;3.60;;;2.28;;
23684;SDS011;12020;51.384;6.908;2023-03-23T03:36:00;2.60;;;2.38;;
23684;SDS011;12020;51.384;6.908;2023-03-23T03:38:28;2.60;;;2.30;;
23684;SDS011;12020;51.384;6.908;2023-03-23T03:40:54;3.50;;;2.27;;
23684;SDS011;12020;51.384;6.908;2023-03-23T03:43:21;2.30;;;2.10;;
23684;SDS011;12020;51.384;6.908;2023-03-23T03:45:46;2.75;;;2.15;;
23684;SDS011;12020;51.384;6.908;2023-03-23T03:48:12;2.60;;;1.90;;
23684;SDS011;12020;51.384;6.908;2023-03-23T03:50:38;2.78;;;1.98;;
23684;SDS011;12020;51.384;6.908;2023-03-23T03:53:04;2.30;;;1.90;;
23684;SDS011;12020;51.384;6.908;2023-03-23T03:55:31;2.78;;;2.17;;
23684;SDS011;12020;51.384;6.908;2023-03-23T03:58:01;3.05;;;2.10;;
23684;SDS011;12020;51.384;6.908;2023-03-23T04:00:29;2.20;;;1.80;;
23684;SDS011;12020;51.384;6.908;2023-03-23T04:02:55;3.15;;;2.30;;
23684;SDS011;12020;51.384;6.908;2023-03-23T04:05:21;3.25;;;2.00;;
23684;SDS011;12020;51.384;6.908;2023-03-23T04:07:48;2.42;;;2.20;;
23684;SDS011;12020;51.384;6.908;2023-03-23T04:10:17;2.95;;;2.25;;
23684;SDS011;12020;51.384;6.908;2023-03-23T04:12:50;2.25;;;2.00;;
23684;SDS011;12020;51.384;6.908;2023-03-23T04:15:16;2.30;;;2.10;;
23684;SDS011;12020;51.384;6.908;2023-03-23T04:17:42;2.40;;;2.00;;
23684;SDS011;12020;51.384;6.908;2023-03-23T04:20:08;3.00;;;2.15;;
23684;SDS011;12020;51.384;6.908;2023-03-23T04:25:14;2.40;;;2.20;;
23684;SDS011;12020;51.384;6.908;2023-03-23T04:27:42;2.53;;;2.10;;
23684;SDS011;12020;51.384;6.908;2023-03-23T04:30:08;3.15;;;2.05;;
23684;SDS011;12020;51.384;6.908;2023-03-23T04:32:36;2.28;;;1.83;;
23684;SDS011;12020;51.384;6.908;2023-03-23T04:35:06;2.25;;;1.85;;
23684;SDS011;12020;51.384;6.908;2023-03-23T04:37:33;2.85;;;2.00;;
23684;SDS011;12020;51.384;6.908;2023-03-23T04:39:59;2.28;;;1.73;;
23684;SDS011;12020;51.384;6.908;2023-03-23T04:42:30;2.45;;;2.00;;
23684;SDS011;12020;51.384;6.908;2023-03-23T04:44:56;2.25;;;1.90;;
23684;SDS011;12020;51.384;6.908;2023-03-23T04:47:23;3.30;;;2.07;;
23684;SDS011;12020;51.384;6.908;2023-03-23T04:49:49;2.60;;;2.00;;
23684;SDS011;12020;51.384;6.908;2023-03-23T04:52:16;2.43;;;1.87;;
23684;SDS011;12020;51.384;6.908;2023-03-23T04:54:42;2.88;;;1.77;;
23684;SDS011;12020;51.384;6.908;2023-03-23T04:57:09;2.70;;;2.00;;
23684;SDS011;12020;51.384;6.908;2023-03-23T04:59:34;2.72;;;1.80;;
23684;SDS011;12020;51.384;6.908;2023-03-23T05:02:00;2.42;;;1.90;;
23684;SDS011;12020;51.384;6.908;2023-03-23T05:04:27;2.80;;;1.90;;
23684;SDS011;12020;51.384;6.908;2023-03-23T05:06:52;2.63;;;1.87;;
23684;SDS011;12020;51.384;6.908;2023-03-23T05:09:18;2.70;;;2.00;;
23684;SDS011;12020;51.384;6.908;2023-03-23T05:11:44;3.42;;;2.00;;
23684;SDS011;12020;51.384;6.908;2023-03-23T05:14:11;2.53;;;2.08;;
23684;SDS011;12020;51.384;6.908;2023-03-23T05:16:36;3.13;;;2.10;;
23684;SDS011;12020;51.384;6.908;2023-03-23T05:19:02;2.38;;;2.05;;
23684;SDS011;12020;51.384;6.908;2023-03-23T05:21:29;3.05;;;1.88;;
23684;SDS011;12020;51.384;6.908;2023-03-23T05:23:55;2.83;;;1.90;;
23684;SDS011;12020;51.384;6.908;2023-03-23T05:26:21;2.30;;;2.10;;
23684;SDS011;12020;51.384;6.908;2023-03-23T05:28:50;2.77;;;2.10;;
23684;SDS011;12020;51.384;6.908;2023-03-23T05:31:18;2.70;;;2.30;;
23684;SDS011;12020;51.384;6.908;2023-03-23T05:33:44;2.70;;;2.10;;
23684;SDS011;12020;51.384;6.908;2023-03-23T05:36:10;2.20;;;1.90;;
23684;SDS011;12020;51.384;6.908;2023-03-23T05:38:38;2.85;;;2.00;;
23684;SDS011;12020;51.384;6.908;2023-03-23T05:41:07;2.67;;;2.10;;
23684;SDS011;12020;51.384;6.908;2023-03-23T05:43:33;3.90;;;2.20;;
23684;SDS011;12020;51.384;6.908;2023-03-23T05:45:59;2.30;;;2.10;;
23684;SDS011;12020;51.384;6.908;2023-03-23T05:48:25;2.63;;;2.20;;
23684;SDS011;12020;51.384;6.908;2023-03-23T05:50:51;2.70;;;2.10;;
23684;SDS011;12020;51.384;6.908;2023-03-23T05:53:18;2.50;;;2.10;;
23684;SDS011;12020;51.384;6.908;2023-03-23T05:55:43;2.78;;;2.03;;
23684;SDS011;12020;51.384;6.908;2023-03-23T05:58:10;2.38;;;1.83;;
23684;SDS011;12020;51.384;6.908;2023-03-23T06:00:35;2.87;;;2.10;;
23684;SDS011;12020;51.384;6.908;2023-03-23T06:03:01;2.40;;;2.10;;
23684;SDS011;12020;51.384;6.908;2023-03-23T06:05:27;3.47;;;2.30;;
23684;SDS011;12020;51.384;6.908;2023-03-23T06:07:54;2.97;;;2.20;;
23684;SDS011;12020;51.384;6.908;2023-03-23T06:10:19;3.80;;;2.40;;
23684;SDS011;12020;51.384;6.908;2023-03-23T06:12:46;2.97;;;2.20;;
23684;SDS011;12020;51.384;6.908;2023-03-23T06:15:12;3.37;;;2.20;;
23684;SDS011;12020;51.384;6.908;2023-03-23T06:17:38;3.73;;;2.27;;
23684;SDS011;12020;51.384;6.908;2023-03-23T06:20:04;4.33;;;2.07;;
23684;SDS011;12020;51.384;6.908;2023-03-23T06:22:35;3.05;;;2.15;;
23684;SDS011;12020;51.384;6.908;2023-03-23T06:25:03;3.00;;;2.13;;
23684;SDS011;12020;51.384;6.908;2023-03-23T06:27:30;2.60;;;2.20;;
23684;SDS011;12020;51.384;6.908;2023-03-23T06:29:56;4.10;;;2.40;;
23684;SDS011;12020;51.384;6.908;2023-03-23T06:32:21;3.13;;;2.10;;
23684;SDS011;12020;51.384;6.908;2023-03-23T06:34:47;4.32;;;2.10;;
23684;SDS011;12020;51.384;6.908;2023-03-23T06:37:13;3.70;;;2.20;;
23684;SDS011;12020;51.384;6.908;2023-03-23T06:39:40;2.60;;;2.15;;
23684;SDS011;12020;51.384;6.908;2023-03-23T06:42:08;3.63;;;2.40;;
23684;SDS011;12020;51.384;6.908;2023-03-23T06:44:36;3.90;;;2.10;;
23684;SDS011;12020;51.384;6.908;2023-03-23T06:47:02;5.20;;;2.28;;
23684;SDS011;12020;51.384;6.908;2023-03-23T06:49:28;6.90;;;2.80;;
23684;SDS011;12020;51.384;6.908;2023-03-23T06:51:54;3.63;;;2.10;;
23684;SDS011;12020;51.384;6.908;2023-03-23T06:54:25;3.33;;;2.25;;
23684;SDS011;12020;51.384;6.908;2023-03-23T06:56:51;3.25;;;2.17;;
23684;SDS011;12020;51.384;6.908;2023-03-23T06:59:16;5.33;;;2.00;;
23684;SDS011;12020;51.384;6.908;2023-03-23T07:01:45;3.97;;;2.20;;
23684;SDS011;12020;51.384;6.908;2023-03-23T07:04:11;2.53;;;1.93;;
23684;SDS011;12020;51.384;6.908;2023-03-23T07:06:38;3.92;;;2.05;;
23684;SDS011;12020;51.384;6.908;2023-03-23T07:09:03;4.68;;;2.13;;
23684;SDS011;12020;51.384;6.908;2023-03-23T07:13:58;3.47;;;1.98;;
23684;SDS011;12020;51.384;6.908;2023-03-23T07:16:24;3.27;;;1.70;;
23684;SDS011;12020;51.384;6.908;2023-03-23T07:18:51;4.20;;;1.90;;
23684;SDS011;12020;51.384;6.908;2023-03-23T07:21:16;3.10;;;1.70;;
23684;SDS011;12020;51.384;6.908;2023-03-23T07:23:42;4.37;;;1.80;;
23684;SDS011;12020;51.384;6.908;2023-03-23T07:26:08;5.25;;;2.10;;
23684;SDS011;12020;51.384;6.908;2023-03-23T07:28:33;2.65;;;1.77;;
23684;SDS011;12020;51.384;6.908;2023-03-23T07:30:59;3.22;;;1.75;;
23684;SDS011;12020;51.384;6.908;2023-03-23T07:33:25;3.70;;;1.88;;
23684;SDS011;12020;51.384;6.908;2023-03-23T07:35:51;4.90;;;2.05;;
23684;SDS011;12020;51.384;6.908;2023-03-23T07:38:17;5.03;;;1.95;;
23684;SDS011;12020;51.384;6.908;2023-03-23T07:40:43;3.63;;;1.70;;
23684;SDS011;12020;51.384;6.908;2023-03-23T07:43:10;4.63;;;2.30;;
23684;SDS011;12020;51.384;6.908;2023-03-23T07:45:36;3.25;;;1.60;;
23684;SDS011;12020;51.384;6.908;2023-03-23T07:48:02;3.60;;;1.80;;
23684;SDS011;12020;51.384;6.908;2023-03-23T07:50:27;2.70;;;1.70;;
23684;SDS011;12020;51.384;6.908;2023-03-23T07:52:54;3.27;;;1.60;;
23684;SDS011;12020;51.384;6.908;2023-03-23T07:55:21;3.00;;;1.67;;
23684;SDS011;12020;51.384;6.908;2023-03-23T07:57:50;2.95;;;1.60;;
23684;SDS011;12020;51.384;6.908;2023-03-23T08:00:18;3.90;;;1.73;;
23684;SDS011;12020;51.384;6.908;2023-03-23T08:02:45;3.50;;;1.73;;
23684;SDS011;12020;51.384;6.908;2023-03-23T08:05:12;2.50;;;1.48;;
23684;SDS011;12020;51.384;6.908;2023-03-23T08:07:38;4.40;;;1.70;;
23684;SDS011;12020;51.384;6.908;2023-03-23T08:10:05;3.60;;;1.60;;
23684;SDS011;12020;51.384;6.908;2023-03-23T08:12:35;4.05;;;1.70;;
23684;SDS011;12020;51.384;6.908;2023-03-23T08:15:00;4.83;;;1.70;;
23684;SDS011;12020;51.384;6.908;2023-03-23T08:17:26;4.00;;;1.63;;
23684;SDS011;12020;51.384;6.908;2023-03-23T08:19:52;4.03;;;1.90;;
23684;SDS011;12020;51.384;6.908;2023-03-23T08:22:18;4.30;;;1.80;;
23684;SDS011;12020;51.384;6.908;2023-03-23T08:24:44;3.95;;;1.52;;
23684;SDS011;12020;51.384;6.908;2023-03-23T08:27:09;4.37;;;1.67;;
23684;SDS011;12020;51.384;6.908;2023-03-23T08:29:35;4.87;;;1.90;;
23684;SDS011;12020;51.384;6.908;2023-03-23T08:32:01;4.00;;;1.60;;
23684;SDS011;12020;51.384;6.908;2023-03-23T08:34:28;3.60;;;1.70;;
23684;SDS011;12020;51.384;6.908;2023-03-23T08:36:56;4.67;;;1.70;;
23684;SDS011;12020;51.384;6.908;2023-03-23T08:39:22;3.97;;;1.70;;
23684;SDS011;12020;51.384;6.908;2023-03-23T08:41:48;3.33;;;1.50;;
23684;SDS011;12020;51.384;6.908;2023-03-23T08:44:14;3.40;;;1.55;;
23684;SDS011;12020;51.384;6.908;2023-03-23T08:46:40;4.50;;;2.00;;
23684;SDS011;12020;51.384;6.908;2023-03-23T08:49:06;4.15;;;1.77;;
23684;SDS011;12020;51.384;6.908;2023-03-23T08:51:32;4.15;;;1.70;;
23684;SDS011;12020;51.384;6.908;2023-03-23T08:53:58;3.70;;;1.73;;
23684;SDS011;12020;51.384;6.908;2023-03-23T08:56:24;4.30;;;1.80;;
23684;SDS011;12020;51.384;6.908;2023-03-23T08:58:51;3.63;;;1.80;;
23684;SDS011;12020;51.384;6.908;2023-03-23T09:01:16;2.80;;;1.77;;
23684;SDS011;12020;51.384;6.908;2023-03-23T09:03:42;3.58;;;1.65;;
23684;SDS011;12020;51.384;6.908;2023-03-23T09:06:08;4.25;;;1.95;;
23684;SDS011;12020;51.384;6.908;2023-03-23T09:08:37;5.00;;;1.90;;
23684;SDS011;12020;51.384;6.908;2023-03-23T09:11:08;3.22;;;1.60;;
23684;SDS011;12020;51.384;6.908;2023-03-23T09:13:35;5.97;;;1.73;;
23684;SDS011;12020;51.384;6.908;2023-03-23T09:16:02;5.43;;;2.00;;
23684;SDS011;12020;51.384;6.908;2023-03-23T09:18:29;4.15;;;1.70;;
23684;SDS011;12020;51.384;6.908;2023-03-23T09:20:58;5.60;;;1.80;;
23684;SDS011;12020;51.384;6.908;2023-03-23T09:23:25;4.68;;;1.80;;
23684;SDS011;12020;51.384;6.908;2023-03-23T09:25:51;4.00;;;1.80;;
23684;SDS011;12020;51.384;6.908;2023-03-23T09:28:17;5.18;;;1.77;;
23684;SDS011;12020;51.384;6.908;2023-03-23T09:30:44;4.90;;;1.92;;
23684;SDS011;12020;51.384;6.908;2023-03-23T09:33:10;5.37;;;1.50;;
23684;SDS011;12020;51.384;6.908;2023-03-23T09:35:36;4.43;;;1.80;;
23684;SDS011;12020;51.384;6.908;2023-03-23T09:38:03;4.93;;;1.73;;
23684;SDS011;12020;51.384;6.908;2023-03-23T09:40:47;4.20;;;1.75;;
23684;SDS011;12020;51.384;6.908;2023-03-23T09:43:21;3.67;;;1.70;;
23684;SDS011;12020;51.384;6.908;2023-03-23T09:48:53;5.32;;;1.77;;
23684;SDS011;12020;51.384;6.908;2023-03-23T09:54:29;5.00;;;2.15;;
23684;SDS011;12020;51.384;6.908;2023-03-23T09:57:03;6.28;;;2.22;;
23684;SDS011;12020;51.384;6.908;2023-03-23T10:02:49;3.58;;;1.20;;
23684;SDS011;12020;51.384;6.908;2023-03-23T10:08:01;2.40;;;1.35;;
23684;SDS011;12020;51.384;6.908;2023-03-23T10:10:42;3.97;;;1.70;;
23684;SDS011;12020;51.384;6.908;2023-03-23T10:15:56;4.15;;;1.80;;
23684;SDS011;12020;51.384;6.908;2023-03-23T10:18:29;4.38;;;2.00;;
23684;SDS011;12020;51.384;6.908;2023-03-23T10:21:12;3.78;;;1.75;;
23684;SDS011;12020;51.384;6.908;2023-03-23T10:23:56;3.30;;;2.05;;
23684;SDS011;12020;51.384;6.908;2023-03-23T10:32:20;4.28;;;2.30;;
23684;SDS011;12020;51.384;6.908;2023-03-23T10:35:02;5.40;;;2.53;;
23684;SDS011;12020;51.384;6.908;2023-03-23T10:37:32;4.00;;;2.55;;
23684;SDS011;12020;51.384;6.908;2023-03-23T10:40:04;5.28;;;2.25;;
23684;SDS011;12020;51.384;6.908;2023-03-23T10:42:37;2.88;;;2.17;;
23684;SDS011;12020;51.384;6.908;2023-03-23T10:47:48;4.10;;;2.30;;
23684;SDS011;12020;51.384;6.908;2023-03-23T10:50:21;5.10;;;2.15;;
23684;SDS011;12020;51.384;6.908;2023-03-23T10:52:51;3.90;;;2.15;;
23684;SDS011;12020;51.384;6.908;2023-03-23T10:55:22;2.67;;;1.50;;
23684;SDS011;12020;51.384;6.908;2023-03-23T10:57:59;2.20;;;1.10;;
23684;SDS011;12020;51.384;6.908;2023-03-23T11:00:32;3.97;;;1.35;;
23684;SDS011;12020;51.384;6.908;2023-03-23T11:03:05;2.53;;;1.20;;
23684;SDS011;12020;51.384;6.908;2023-03-23T11:05:49;3.17;;;1.38;;
23684;SDS011;12020;51.384;6.908;2023-03-23T11:08:19;4.80;;;1.50;;
23684;SDS011;12020;51.384;6.908;2023-03-23T11:13:18;5.22;;;1.80;;
23684;SDS011;12020;51.384;6.908;2023-03-23T11:15:46;4.53;;;1.50;;
23684;SDS011;12020;51.384;6.908;2023-03-23T11:18:23;3.25;;;1.50;;
23684;SDS011;12020;51.384;6.908;2023-03-23T11:20:53;4.15;;;1.50;;
23684;SDS011;12020;51.384;6.908;2023-03-23T11:26:13;3.38;;;1.25;;
23684;SDS011;12020;51.384;6.908;2023-03-23T11:28:52;3.42;;;1.30;;
23684;SDS011;12020;51.384;6.908;2023-03-23T11:31:21;3.25;;;1.25;;
23684;SDS011;12020;51.384;6.908;2023-03-23T11:33:51;2.40;;;1.40;;
23684;SDS011;12020;51.384;6.908;2023-03-23T11:36:20;2.63;;;1.25;;
23684;SDS011;12020;51.384;6.908;2023-03-23T11:38:54;5.33;;;1.73;;
23684;SDS011;12020;51.384;6.908;2023-03-23T11:41:23;2.90;;;1.20;;
23684;SDS011;12020;51.384;6.908;2023-03-23T11:43:53;3.65;;;1.10;;
23684;SDS011;12020;51.384;6.908;2023-03-23T11:48:59;3.47;;;1.23;;
23684;SDS011;12020;51.384;6.908;2023-03-23T11:51:38;2.33;;;1.00;;
23684;SDS011;12020;51.384;6.908;2023-03-23T11:54:19;3.67;;;1.30;;
23684;SDS011;12020;51.384;6.908;2023-03-23T11:57:06;3.28;;;1.02;;
23684;SDS011;12020;51.384;6.908;2023-03-23T11:59:36;1.60;;;1.10;;
23684;SDS011;12020;51.384;6.908;2023-03-23T12:05:19;1.80;;;1.00;;
23684;SDS011;12020;51.384;6.908;2023-03-23T12:15:48;2.40;;;1.30;;
23684;SDS011;12020;51.384;6.908;2023-03-23T12:29:26;3.25;;;2.20;;
23684;SDS011;12020;51.384;6.908;2023-03-23T12:37:48;2.77;;;2.10;;
23684;SDS011;12020;51.384;6.908;2023-03-23T12:40:29;2.53;;;1.90;;
23684;SDS011;12020;51.384;6.908;2023-03-23T12:45:48;3.63;;;2.25;;
23684;SDS011;12020;51.384;6.908;2023-03-23T12:48:23;3.00;;;2.20;;
23684;SDS011;12020;51.384;6.908;2023-03-23T12:56:35;3.55;;;2.42;;
23684;SDS011;12020;51.384;6.908;2023-03-23T13:02:03;4.30;;;2.40;;
23684;SDS011;12020;51.384;6.908;2023-03-23T13:04:43;4.97;;;2.75;;
23684;SDS011;12020;51.384;6.908;2023-03-23T13:07:24;3.92;;;2.03;;
23684;SDS011;12020;51.384;6.908;2023-03-23T13:10:03;3.35;;;1.92;;
23684;SDS011;12020;51.384;6.908;2023-03-23T13:12:37;4.60;;;2.17;;
23684;SDS011;12020;51.384;6.908;2023-03-23T13:15:18;4.38;;;1.83;;
23684;SDS011;12020;51.384;6.908;2023-03-23T13:17:59;5.05;;;2.00;;
23684;SDS011;12020;51.384;6.908;2023-03-23T13:20:48;5.35;;;1.90;;
23684;SDS011;12020;51.384;6.908;2023-03-23T13:23:57;3.20;;;1.77;;
23684;SDS011;12020;51.384;6.908;2023-03-23T13:26:21;5.30;;;2.03;;
23684;SDS011;12020;51.384;6.908;2023-03-23T13:29:05;3.95;;;1.98;;
23684;SDS011;12020;51.384;6.908;2023-03-23T13:31:37;3.80;;;1.90;;
23684;SDS011;12020;51.384;6.908;2023-03-23T13:37:05;5.63;;;2.20;;
23684;SDS011;12020;51.384;6.908;2023-03-23T13:39:37;5.72;;;1.92;;
23684;SDS011;12020;51.384;6.908;2023-03-23T13:58:26;4.60;;;2.50;;
23684;SDS011;12020;51.384;6.908;2023-03-23T14:02:59;3.92;;;3.08;;
23684;SDS011;12020;51.384;6.908;2023-03-23T14:10:54;4.82;;;3.80;;
23684;SDS011;12020;51.384;6.908;2023-03-23T14:19:14;5.47;;;4.00;;
23684;SDS011;12020;51.384;6.908;2023-03-23T14:21:41;4.65;;;4.10;;
23684;SDS011;12020;51.384;6.908;2023-03-23T14:24:21;5.27;;;4.23;;
23684;SDS011;12020;51.384;6.908;2023-03-23T14:26:52;5.72;;;4.78;;
23684;SDS011;12020;51.384;6.908;2023-03-23T14:29:25;6.25;;;4.88;;
23684;SDS011;12020;51.384;6.908;2023-03-23T14:31:56;5.47;;;4.65;;
23684;SDS011;12020;51.384;6.908;2023-03-23T14:34:24;4.90;;;4.18;;
23684;SDS011;12020;51.384;6.908;2023-03-23T14:36:53;4.85;;;4.40;;
23684;SDS011;12020;51.384;6.908;2023-03-23T14:39:33;6.22;;;4.30;;
23684;SDS011;12020;51.384;6.908;2023-03-23T14:42:12;6.32;;;4.07;;
23684;SDS011;12020;51.384;6.908;2023-03-23T14:44:42;5.35;;;4.30;;
23684;SDS011;12020;51.384;6.908;2023-03-23T14:47:16;6.33;;;4.50;;
23684;SDS011;12020;51.384;6.908;2023-03-23T14:49:56;5.70;;;4.20;;
23684;SDS011;12020;51.384;6.908;2023-03-23T14:52:24;6.15;;;4.40;;
23684;SDS011;12020;51.384;6.908;2023-03-23T14:54:52;5.10;;;3.58;;
23684;SDS011;12020;51.384;6.908;2023-03-23T14:57:18;4.17;;;3.53;;
23684;SDS011;12020;51.384;6.908;2023-03-23T14:59:51;4.63;;;3.17;;
23684;SDS011;12020;51.384;6.908;2023-03-23T15:04:54;4.33;;;2.80;;
23684;SDS011;12020;51.384;6.908;2023-03-23T15:07:26;3.85;;;2.45;;
23684;SDS011;12020;51.384;6.908;2023-03-23T15:09:56;4.47;;;2.10;;
23684;SDS011;12020;51.384;6.908;2023-03-23T15:12:24;5.00;;;2.00;;
23684;SDS011;12020;51.384;6.908;2023-03-23T15:14:53;4.00;;;2.00;;
23684;SDS011;12020;51.384;6.908;2023-03-23T15:17:23;4.22;;;1.98;;
23684;SDS011;12020;51.384;6.908;2023-03-23T15:20:17;4.65;;;2.15;;
23684;SDS011;12020;51.384;6.908;2023-03-23T15:22:45;4.28;;;2.17;;
23684;SDS011;12020;51.384;6.908;2023-03-23T15:25:17;5.50;;;2.53;;
23684;SDS011;12020;51.384;6.908;2023-03-23T15:30:47;7.30;;;2.33;;
23684;SDS011;12020;51.384;6.908;2023-03-23T15:33:16;4.25;;;2.28;;
23684;SDS011;12020;51.384;6.908;2023-03-23T15:35:46;5.97;;;2.50;;
23684;SDS011;12020;51.384;6.908;2023-03-23T15:40:45;3.97;;;1.83;;
23684;SDS011;12020;51.384;6.908;2023-03-23T15:43:48;4.75;;;1.98;;
23684;SDS011;12020;51.384;6.908;2023-03-23T15:51:19;5.20;;;2.00;;
23684;SDS011;12020;51.384;6.908;2023-03-23T15:53:47;4.07;;;1.80;;
23684;SDS011;12020;51.384;6.908;2023-03-23T15:56:15;4.80;;;2.00;;
23684;SDS011;12020;51.384;6.908;2023-03-23T15:58:41;5.25;;;2.10;;
23684;SDS011;12020;51.384;6.908;2023-03-23T16:01:11;3.80;;;1.80;;
23684;SDS011;12020;51.384;6.908;2023-03-23T16:03:41;3.40;;;1.75;;
23684;SDS011;12020;51.384;6.908;2023-03-23T16:06:19;4.23;;;1.90;;
23684;SDS011;12020;51.384;6.908;2023-03-23T16:08:47;4.18;;;1.95;;
23684;SDS011;12020;51.384;6.908;2023-03-23T16:11:13;4.20;;;2.05;;
23684;SDS011;12020;51.384;6.908;2023-03-23T16:13:40;4.05;;;1.63;;
23684;SDS011;12020;51.384;6.908;2023-03-23T16:16:21;5.15;;;1.90;;
23684;SDS011;12020;51.384;6.908;2023-03-23T16:18:48;5.90;;;2.10;;
23684;SDS011;12020;51.384;6.908;2023-03-23T16:21:14;3.43;;;1.93;;
23684;SDS011;12020;51.384;6.908;2023-03-23T16:23:41;4.32;;;2.00;;
23684;SDS011;12020;51.384;6.908;2023-03-23T16:26:10;4.80;;;1.97;;
23684;SDS011;12020;51.384;6.908;2023-03-23T16:28:36;5.65;;;2.17;;
23684;SDS011;12020;51.384;6.908;2023-03-23T16:31:02;4.53;;;1.95;;
23684;SDS011;12020;51.384;6.908;2023-03-23T16:33:28;5.32;;;2.20;;
23684;SDS011;12020;51.384;6.908;2023-03-23T16:35:54;4.60;;;2.22;;
23684;SDS011;12020;51.384;6.908;2023-03-23T16:38:21;4.03;;;2.20;;
23684;SDS011;12020;51.384;6.908;2023-03-23T16:40:47;4.65;;;2.22;;
23684;SDS011;12020;51.384;6.908;2023-03-23T16:43:13;5.75;;;2.47;;
23684;SDS011;12020;51.384;6.908;2023-03-23T16:45:40;4.97;;;2.22;;
23684;SDS011;12020;51.384;6.908;2023-03-23T16:48:07;5.75;;;2.67;;
23684;SDS011;12020;51.384;6.908;2023-03-23T16:50:33;3.92;;;2.22;;
23684;SDS011;12020;51.384;6.908;2023-03-23T16:53:00;6.90;;;2.50;;
23684;SDS011;12020;51.384;6.908;2023-03-23T16:55:27;4.93;;;2.70;;
23684;SDS011;12020;51.384;6.908;2023-03-23T16:57:54;4.90;;;2.30;;
23684;SDS011;12020;51.384;6.908;2023-03-23T17:00:20;4.55;;;2.30;;
23684;SDS011;12020;51.384;6.908;2023-03-23T17:02:47;4.22;;;2.42;;
23684;SDS011;12020;51.384;6.908;2023-03-23T17:05:16;5.55;;;2.50;;
23684;SDS011;12020;51.384;6.908;2023-03-23T17:07:44;4.78;;;2.20;;
23684;SDS011;12020;51.384;6.908;2023-03-23T17:10:10;5.78;;;2.35;;
23684;SDS011;12020;51.384;6.908;2023-03-23T17:12:37;5.38;;;2.40;;
23684;SDS011;12020;51.384;6.908;2023-03-23T17:15:04;4.75;;;2.47;;